Weather reports worldwide

Advertisment
Alto De Los Leones, Spain (8217): temperature & dewpoint: 31.05.2020 13:00:00 - 06.06.2020 13:00:00 (CEST)Alto De Los Leones, Spain (8217): wind speed & gusts: 31.05.2020 13:00:00 - 06.06.2020 13:00:00 (CEST)Alto De Los Leones, Spain (8217): wind direction: 31.05.2020 13:00:00 - 06.06.2020 13:00:00 (CEST)Alto De Los Leones, Spain (8217): precipitation: 31.05.2020 13:00:00 - 06.06.2020 13:00:00 (CEST)
Date & Time tt [°C] td [°C] ff [km/h] ff [kn] fx [km/h] fx [kn] dd rr [mm]
06.06.2020 13:00:00 17,5 1,9 9 5 24 13 ESE 0,0
06.06.2020 12:00:00 15,2 3,6 9 5 24 13 ESE 0,0
06.06.2020 11:00:00 14,5 3,9 7 4 18 10 WNW 0,0
06.06.2020 10:00:00 14,1 3,8 6 4 14 8 NW 0,0
06.06.2020 09:00:00 12,3 3,8 9 5 10 6 NW 0,0
06.06.2020 08:00:00 11,1 3,6 7 4 12 6 WNW -
06.06.2020 07:00:00 9,3 2,9 10 5 17 9 WNW 0,0
06.06.2020 06:00:00 9,1 2,5 15 8 22 12 WNW 0,0
06.06.2020 05:00:00 10,0 1,9 18 10 24 13 WNW 0,0
06.06.2020 04:00:00 10,2 1,1 17 9 24 13 WNW 0,0
06.06.2020 03:00:00 10,6 0,9 19 10 25 13 WNW 0,0
06.06.2020 02:00:00 10,9 0,6 19 10 25 14 WNW -
06.06.2020 01:00:00 12,0 -0,3 20 11 27 15 WNW 0,0
06.06.2020 00:00:00 12,5 -1,4 21 11 29 16 WNW 0,0
05.06.2020 23:00:00 13,9 -2,2 5 3 10 5 WNW 0,0
05.06.2020 22:00:00 15,2 -1,4 5 3 10 5 W 0,0
05.06.2020 21:00:00 18,9 -1,7 6 4 18 10 WNW 0,0
05.06.2020 20:00:00 19,5 -1,7 11 6 24 13 WNW -
05.06.2020 19:00:00 19,3 -1,2 16 9 26 14 NW 0,0
05.06.2020 18:00:00 19,6 -1,0 14 8 25 13 WNW 0,0
05.06.2020 17:00:00 18,6 -2,0 15 8 26 14 WNW 0,0
05.06.2020 16:00:00 19,0 0,0 15 8 27 15 WNW 0,0
05.06.2020 15:00:00 16,8 -1,0 15 8 26 14 WNW 0,0
05.06.2020 14:00:00 15,0 -1,7 17 9 30 16 NW -
05.06.2020 13:00:00 14,0 -1,7 19 10 31 17 WNW 0,0
05.06.2020 12:00:00 12,6 -1,4 18 10 33 18 WNW 0,0
05.06.2020 11:00:00 11,3 -1,2 20 11 31 17 WNW 0,0
05.06.2020 10:00:00 10,2 -1,2 19 11 31 17 WNW 0,0
05.06.2020 09:00:00 8,4 -0,7 19 11 29 15 WNW 0,0
05.06.2020 08:00:00 5,6 0,9 21 11 34 18 WNW -
05.06.2020 07:00:00 5,4 0,4 27 14 37 20 WNW 0,0
05.06.2020 06:00:00 5,7 0,6 26 14 38 20 WNW 0,0
05.06.2020 05:00:00 5,5 0,9 26 14 39 21 WNW 0,0
05.06.2020 04:00:00 5,1 1,5 22 12 30 16 WNW 0,0
05.06.2020 03:00:00 5,0 0,9 16 9 23 12 WNW 0,0
05.06.2020 02:00:00 5,9 0,4 12 7 19 10 W -
05.06.2020 01:00:00 6,1 0,2 13 7 22 12 WNW 0,0
05.06.2020 00:00:00 7,0 -0,7 16 8 29 16 NW 0,0
04.06.2020 23:00:00 7,9 -2,5 16 9 36 20 NW 0,0
04.06.2020 22:00:00 9,0 -3,0 19 11 41 22 NW 0,0
04.06.2020 21:00:00 10,8 -3,0 29 16 51 27 NW 0,0
04.06.2020 20:00:00 10,9 -3,3 27 15 54 29 NW -
04.06.2020 19:00:00 11,2 -3,0 35 19 55 30 NW 0,0
04.06.2020 18:00:00 12,0 -3,0 39 21 63 34 NW 0,0
04.06.2020 17:00:00 12,6 -2,5 37 20 64 35 NW 0,0
04.06.2020 16:00:00 13,3 -1,2 33 18 58 32 NW 0,0
04.06.2020 15:00:00 11,0 -2,5 34 19 60 32 WNW 0,0
04.06.2020 14:00:00 10,4 1,3 30 16 59 32 NW -
04.06.2020 13:00:00 9,1 2,3 26 14 53 29 NW 0,0
04.06.2020 12:00:00 7,9 4,1 35 19 59 32 WNW 0,0
04.06.2020 11:00:00 6,4 3,4 34 18 55 30 WNW 0,1
04.06.2020 10:00:00 7,2 4,1 38 21 64 35 WNW 0,1
04.06.2020 09:00:00 8,1 5,0 35 19 59 32 WNW 0,5
04.06.2020 08:00:00 8,0 5,0 35 19 60 32 NW -
04.06.2020 07:00:00 8,9 5,8 31 17 60 33 NW 5,3
04.06.2020 06:00:00 9,5 6,4 30 16 50 27 WNW 0,3
04.06.2020 05:00:00 9,8 6,7 33 18 55 30 WNW 1,7
04.06.2020 04:00:00 10,3 7,1 33 18 52 28 WNW 0,1
04.06.2020 03:00:00 10,7 7,6 35 19 54 29 WNW 0,0
04.06.2020 02:00:00 10,8 7,7 31 17 49 26 WNW -
04.06.2020 01:00:00 10,7 7,4 21 11 35 19 WNW 0,0
04.06.2020 00:00:00 10,4 7,1 24 13 35 19 WNW 0,0
03.06.2020 23:00:00 11,2 7,7 21 11 44 24 WNW 0,6
03.06.2020 22:00:00 12,1 7,6 27 15 43 23 WNW 0,0
03.06.2020 21:00:00 11,8 7,8 20 11 43 23 WNW 1,0
03.06.2020 20:00:00 10,7 7,1 29 15 71 38 WNW -
03.06.2020 19:00:00 15,7 3,2 27 15 52 28 WNW 0,0
03.06.2020 18:00:00 17,7 1,3 28 15 46 25 WNW 0,0
03.06.2020 17:00:00 18,5 1,1 25 13 46 25 WNW 0,0
03.06.2020 16:00:00 19,0 1,9 22 12 40 22 WNW 0,0
03.06.2020 15:00:00 19,9 2,3 15 8 29 16 WNW 0,0
03.06.2020 14:00:00 18,1 2,5 9 5 21 11 NW -
03.06.2020 13:00:00 16,9 3,9 9 5 21 11 W 0,0
03.06.2020 12:00:00 17,2 3,8 2 1 15 8 WNW 0,0
03.06.2020 11:00:00 15,0 3,4 11 6 21 11 WNW 0,0
03.06.2020 10:00:00 14,5 6,5 10 5 17 9 WNW 0,0
03.06.2020 09:00:00 12,9 7,1 11 6 19 10 WNW 0,0
03.06.2020 08:00:00 10,6 5,8 12 6 15 8 WNW -
03.06.2020 07:00:00 9,9 4,5 10 6 23 13 WNW 0,0
03.06.2020 06:00:00 9,7 3,0 18 10 21 11 WNW 0,0
03.06.2020 05:00:00 10,5 1,3 15 8 20 11 WNW 0,0
03.06.2020 04:00:00 11,2 0,9 13 7 27 14 WNW 0,0
03.06.2020 03:00:00 12,1 0,9 11 6 16 9 WNW 0,0
03.06.2020 02:00:00 12,0 -0,3 12 6 17 9 WNW -
03.06.2020 01:00:00 12,4 -0,3 13 7 17 9 WNW 0,0
03.06.2020 00:00:00 13,9 -0,3 8 4 11 6 WNW 0,0
02.06.2020 23:00:00 14,4 -0,5 8 4 23 12 WNW 0,0
02.06.2020 22:00:00 15,9 -1,7 13 7 23 13 WSW 0,0
02.06.2020 21:00:00 17,8 -1,4 9 5 19 11 SW 0,0
02.06.2020 20:00:00 17,8 -0,5 3 1 22 12 SSE -
02.06.2020 19:00:00 20,1 1,5 9 5 27 14 ESE 0,0
02.06.2020 18:00:00 19,7 1,1 9 5 26 14 ESE 0,0
02.06.2020 17:00:00 18,8 0,4 12 7 36 19 ESE 0,0
02.06.2020 16:00:00 19,0 3,6 13 7 35 19 ESE 0,0
02.06.2020 15:00:00 19,1 4,5 14 7 34 18 ESE 0,0
02.06.2020 14:00:00 18,2 4,3 14 8 31 17 E -
02.06.2020 13:00:00 17,7 3,9 15 8 25 13 E 0,0
02.06.2020 12:00:00 17,8 3,9 9 5 19 11 E 0,0
02.06.2020 11:00:00 15,9 4,3 8 5 14 7 E 0,0
02.06.2020 10:00:00 14,8 4,5 8 4 11 6 ESE 0,0
02.06.2020 09:00:00 15,4 3,8 6 3 10 5 ESE 0,0
02.06.2020 08:00:00 14,0 3,8 7 4 10 5 ESE -
02.06.2020 07:00:00 12,2 3,4 2 1 10 5 NW 0,0
02.06.2020 06:00:00 12,1 3,0 9 5 11 6 W 0,0
02.06.2020 05:00:00 12,8 2,9 5 3 9 5 WNW 0,0
02.06.2020 04:00:00 12,8 2,7 7 4 16 8 WNW 0,0
02.06.2020 03:00:00 12,8 0,9 11 6 17 9 W 0,0
02.06.2020 02:00:00 15,0 -0,7 0 0 0 0 N -
02.06.2020 01:00:00 14,9 -1,0 0 0 0 0 N 0,0
02.06.2020 00:00:00 15,9 -0,5 0 0 7 4 N 0,0
01.06.2020 23:00:00 16,3 0,0 3 2 7 4 SE 0,0
01.06.2020 22:00:00 15,7 -0,5 5 3 8 4 WSW 0,0
01.06.2020 21:00:00 16,4 0,0 3 2 9 5 SSW 0,0
01.06.2020 20:00:00 17,6 1,1 1 0 14 8 WSW -
01.06.2020 19:00:00 18,0 1,1 9 5 19 11 ESE 0,0
01.06.2020 18:00:00 18,1 1,1 10 6 22 12 ESE 0,0
01.06.2020 17:00:00 18,3 2,5 11 6 26 14 ESE 0,0
01.06.2020 16:00:00 18,0 1,9 14 8 27 15 ESE 0,0
01.06.2020 15:00:00 17,7 4,6 12 6 25 14 ESE 0,0
01.06.2020 14:00:00 18,2 5,8 15 8 28 15 ESE -
01.06.2020 13:00:00 17,7 6,8 11 6 22 12 E 0,0
01.06.2020 12:00:00 16,1 5,3 10 5 16 9 ESE 0,0
01.06.2020 11:00:00 14,9 4,8 8 4 16 9 E 0,0
01.06.2020 10:00:00 14,4 4,6 8 4 15 8 SE 0,0
01.06.2020 09:00:00 12,8 3,2 10 6 29 16 E 0,0
01.06.2020 08:00:00 12,1 2,3 10 5 24 13 SE -
01.06.2020 07:00:00 9,8 3,6 12 6 17 9 ESE 0,0
01.06.2020 06:00:00 9,5 4,3 14 8 23 13 ESE 0,0
01.06.2020 05:00:00 9,6 4,5 15 8 23 13 ESE 0,0
01.06.2020 04:00:00 9,7 4,6 15 8 26 14 SE 0,0
01.06.2020 03:00:00 9,9 5,6 17 9 29 15 ESE 0,0
01.06.2020 02:00:00 9,4 5,9 16 8 26 14 ESE -
01.06.2020 01:00:00 9,6 5,9 6 4 16 9 SSE 0,0
01.06.2020 00:00:00 9,4 6,2 13 7 41 22 WNW 2,6
31.05.2020 23:00:00 9,8 6,7 22 12 45 24 WNW 5,3
31.05.2020 22:00:00 10,3 7,1 30 16 45 24 WNW 0,3
31.05.2020 21:00:00 12,0 5,5 6 3 34 18 ENE 2,5
31.05.2020 20:00:00 12,7 1,9 14 7 42 23 S -
31.05.2020 19:00:00 18,7 2,1 2 1 18 10 ESE 0,0
31.05.2020 18:00:00 17,7 3,2 13 7 23 12 W 0,0
31.05.2020 17:00:00 20,2 4,6 16 9 32 17 WNW 0,0
31.05.2020 16:00:00 18,5 6,4 18 10 39 21 WNW 0,0
31.05.2020 15:00:00 14,4 4,6 27 15 40 22 NW 0,0
31.05.2020 14:00:00 18,4 5,0 3 2 16 9 NNE -
31.05.2020 13:00:00 19,8 5,1 6 3 20 11 N 0,0

tt = temperature
td = dewpoint
ff = wind speed
fx = gusts
dd = wind direction
rr = precipitation

Next stations